Time;durP1;ratioP1;P1;durP2;ratioP2;P2;SDS_P1;SDS_P2;PMS_P1;PMS_P2;Temp;Humidity;BMP_temperature;BMP_pressure;BME280_temperature;BME280_humidity;BME280_pressure;Samples;Min_cycle;Max_cycle;Signal;HPM_P1;HPM_P2
2024/01/26 00:01:57;;;;;;;46.72;43.63;;;;;;;;;;5042664;28;20513;-54
2024/01/26 00:04:23;;;;;;;44.17;41.15;;;;;;;;;;5045312;28;20428;-54
2024/01/26 00:06:49;;;;;;;44.03;41.03;;;;;;;;;;5044727;28;20029;-56
2024/01/26 00:09:15;;;;;;;50.90;47.17;;;;;;;;;;5046003;28;20120;-57
2024/01/26 00:11:42;;;;;;;44.50;41.50;;;;;;;;;;5044386;28;20090;-57
2024/01/26 00:14:09;;;;;;;45.30;42.28;;;;;;;;;;5044799;28;20550;-55
2024/01/26 00:16:37;;;;;;;45.33;42.33;;;;;;;;;;5045643;28;20031;-60
2024/01/26 00:19:03;;;;;;;45.55;42.55;;;;;;;;;;5045568;28;20032;-59
2024/01/26 00:21:29;;;;;;;45.42;42.42;;;;;;;;;;5043293;28;20622;-59
2024/01/26 00:23:55;;;;;;;45.33;42.33;;;;;;;;;;5044971;28;20041;-60
2024/01/26 00:26:21;;;;;;;46.33;43.22;;;;;;;;;;5045428;28;20032;-58
2024/01/26 00:28:47;;;;;;;46.00;43.00;;;;;;;;;;5045341;28;20052;-59
2024/01/26 00:31:17;;;;;;;47.45;44.28;;;;;;;;;;5044770;28;20632;-54
2024/01/26 00:33:43;;;;;;;46.08;42.97;;;;;;;;;;5045411;28;20134;-56
2024/01/26 00:36:10;;;;;;;47.95;44.67;;;;;;;;;;5044893;28;20033;-59
2024/01/26 00:38:36;;;;;;;46.22;43.13;;;;;;;;;;5045724;28;20025;-56
2024/01/26 00:41:02;;;;;;;45.55;42.45;;;;;;;;;;5047328;28;20040;-59
2024/01/26 00:43:28;;;;;;;45.75;42.65;;;;;;;;;;5047148;28;20029;-59
2024/01/26 00:45:54;;;;;;;47.15;44.05;;;;;;;;;;5048827;28;20036;-58
2024/01/26 00:48:20;;;;;;;47.70;44.08;;;;;;;;;;5047295;28;20017;-57
2024/01/26 00:50:49;;;;;;;45.85;42.75;;;;;;;;;;5048307;28;20053;-59
2024/01/26 00:53:15;;;;;;;48.78;45.45;;;;;;;;;;5047803;28;20457;-59
2024/01/26 00:55:41;;;;;;;61.40;56.85;;;;;;;;;;5048527;28;20168;-57
2024/01/26 00:58:07;;;;;;;44.25;41.25;;;;;;;;;;5048575;28;20031;-57
2024/01/26 01:00:33;;;;;;;47.70;44.50;;;;;;;;;;5048385;28;20120;-57
2024/01/26 01:02:59;;;;;;;46.45;43.35;;;;;;;;;;5048208;28;20025;-58
2024/01/26 01:05:25;;;;;;;47.03;43.83;;;;;;;;;;5048707;28;20600;-58
2024/01/26 01:07:51;;;;;;;48.20;44.85;;;;;;;;;;5048728;28;20028;-58
2024/01/26 01:10:18;;;;;;;48.95;45.40;;;;;;;;;;5048796;28;20021;-58
2024/01/26 01:12:44;;;;;;;46.72;43.63;;;;;;;;;;5047970;28;20052;-58
2024/01/26 01:15:13;;;;;;;46.05;42.95;;;;;;;;;;5048809;28;20437;-60
2024/01/26 01:17:40;;;;;;;48.05;44.85;;;;;;;;;;5048839;28;20085;-58
2024/01/26 01:20:08;;;;;;;49.35;46.15;;;;;;;;;;5048526;28;20074;-59
2024/01/26 01:22:34;;;;;;;47.83;44.63;;;;;;;;;;5048215;28;20585;-54
2024/01/26 01:25:00;;;;;;;47.63;44.42;;;;;;;;;;5052604;28;20170;-56
2024/01/26 01:27:26;;;;;;;45.67;42.58;;;;;;;;;;5052357;28;20098;-58
2024/01/26 01:29:52;;;;;;;47.28;43.97;;;;;;;;;;5052384;28;20025;-56
2024/01/26 01:32:18;;;;;;;43.53;40.53;;;;;;;;;;5051547;28;20028;-56
2024/01/26 01:34:44;;;;;;;45.58;42.47;;;;;;;;;;5052224;28;20394;-56
2024/01/26 01:37:10;;;;;;;47.05;43.95;;;;;;;;;;5052210;28;20056;-55
2024/01/26 01:39:37;;;;;;;46.50;43.40;;;;;;;;;;5052214;28;20033;-53
2024/01/26 01:42:03;;;;;;;44.65;41.65;;;;;;;;;;5051420;28;20035;-56
2024/01/26 01:44:30;;;;;;;45.10;42.10;;;;;;;;;;5052747;28;20044;-59
2024/01/26 01:46:56;;;;;;;45.95;42.85;;;;;;;;;;5053131;28;20032;-57
2024/01/26 01:49:22;;;;;;;46.35;43.25;;;;;;;;;;5052381;28;20025;-58
2024/01/26 01:51:51;;;;;;;46.75;43.33;;;;;;;;;;5051347;28;20431;-59
2024/01/26 01:54:19;;;;;;;44.90;41.88;;;;;;;;;;5051709;28;20048;-58
2024/01/26 01:56:45;;;;;;;46.13;42.92;;;;;;;;;;5051781;28;20100;-58
2024/01/26 01:59:12;;;;;;;56.53;52.92;;;;;;;;;;5051825;28;20083;-57
2024/01/26 02:01:38;;;;;;;45.15;42.05;;;;;;;;;;5050998;28;20040;-60
2024/01/26 02:04:05;;;;;;;44.75;41.70;;;;;;;;;;5051606;28;20032;-58
2024/01/26 02:06:31;;;;;;;46.10;43.00;;;;;;;;;;5051785;28;20044;-57
2024/01/26 02:08:57;;;;;;;45.33;42.22;;;;;;;;;;5051589;28;20437;-58
2024/01/26 02:11:23;;;;;;;46.80;43.40;;;;;;;;;;5049864;28;20471;-58
2024/01/26 02:13:49;;;;;;;45.55;42.45;;;;;;;;;;5050373;28;20013;-58
2024/01/26 02:16:15;;;;;;;43.97;40.97;;;;;;;;;;5051766;28;20122;-57
2024/01/26 02:18:41;;;;;;;44.20;41.10;;;;;;;;;;5051652;28;20028;-57
2024/01/26 02:21:07;;;;;;;45.40;42.25;;;;;;;;;;5051453;28;20505;-56
2024/01/26 02:23:33;;;;;;;45.25;41.75;;;;;;;;;;5050971;28;20021;-56
2024/01/26 02:25:59;;;;;;;44.03;41.03;;;;;;;;;;5050183;28;20116;-57
2024/01/26 02:28:25;;;;;;;42.80;39.08;;;;;;;;;;5049968;28;20041;-57
2024/01/26 02:30:51;;;;;;;41.63;38.72;;;;;;;;;;5050924;28;20029;-59
2024/01/26 02:33:17;;;;;;;41.38;38.33;;;;;;;;;;5050375;28;20028;-58
2024/01/26 02:35:43;;;;;;;45.40;42.05;;;;;;;;;;5051230;28;20033;-56
2024/01/26 02:38:09;;;;;;;43.80;40.63;;;;;;;;;;5051126;28;20029;-58
2024/01/26 02:40:35;;;;;;;39.25;36.45;;;;;;;;;;5051352;28;20036;-58
2024/01/26 02:43:01;;;;;;;37.80;35.00;;;;;;;;;;5050446;28;20037;-58
2024/01/26 02:45:27;;;;;;;37.55;34.85;;;;;;;;;;5050933;28;20108;-58
2024/01/26 02:47:54;;;;;;;38.20;35.35;;;;;;;;;;5050862;28;20029;-59
2024/01/26 02:50:20;;;;;;;38.72;35.83;;;;;;;;;;5050925;28;20076;-58
2024/01/26 02:52:46;;;;;;;35.53;32.92;;;;;;;;;;5049912;28;20025;-60
2024/01/26 02:55:12;;;;;;;36.00;33.40;;;;;;;;;;5050709;28;20255;-59
2024/01/26 02:57:38;;;;;;;35.90;33.30;;;;;;;;;;5050911;28;20368;-56
2024/01/26 03:00:07;;;;;;;35.72;33.13;;;;;;;;;;5050812;28;20108;-58
2024/01/26 03:02:33;;;;;;;35.60;32.70;;;;;;;;;;5049822;28;20075;-57
2024/01/26 03:04:59;;;;;;;38.97;36.28;;;;;;;;;;5050681;28;20075;-59
2024/01/26 03:07:25;;;;;;;39.45;36.55;;;;;;;;;;5050443;28;20548;-58
2024/01/26 03:09:51;;;;;;;35.65;33.05;;;;;;;;;;5050335;28;20033;-58
2024/01/26 03:12:17;;;;;;;36.20;33.50;;;;;;;;;;5049674;28;20051;-57
2024/01/26 03:14:42;;;;;;;39.63;36.40;;;;;;;;;;5050343;28;20505;-59
2024/01/26 03:17:08;;;;;;;39.50;36.40;;;;;;;;;;5050400;28;20036;-56
2024/01/26 03:19:36;;;;;;;36.30;33.50;;;;;;;;;;5048948;28;20029;-59
2024/01/26 03:22:02;;;;;;;44.22;40.50;;;;;;;;;;5049577;28;20024;-57
2024/01/26 03:24:28;;;;;;;41.28;37.85;;;;;;;;;;5050495;28;20633;-57
2024/01/26 03:26:54;;;;;;;36.50;33.80;;;;;;;;;;5048866;28;20146;-60
2024/01/26 03:29:20;;;;;;;36.00;33.35;;;;;;;;;;5050068;28;20127;-60
2024/01/26 03:31:46;;;;;;;34.88;32.17;;;;;;;;;;5049545;28;20024;-58
2024/01/26 03:34:12;;;;;;;38.90;35.78;;;;;;;;;;5049963;28;20468;-59
2024/01/26 03:36:38;;;;;;;36.20;33.40;;;;;;;;;;5050337;28;20029;-57
2024/01/26 03:39:04;;;;;;;36.10;33.42;;;;;;;;;;5050084;28;20037;-58
2024/01/26 03:41:30;;;;;;;34.20;31.60;;;;;;;;;;5049009;28;20091;-57
2024/01/26 03:43:56;;;;;;;35.13;32.53;;;;;;;;;;5049814;28;20033;-58
2024/01/26 03:46:22;;;;;;;34.65;31.80;;;;;;;;;;5047955;28;20505;-56
2024/01/26 03:48:48;;;;;;;35.85;33.08;;;;;;;;;;5048395;28;20033;-58
2024/01/26 03:51:14;;;;;;;36.20;33.17;;;;;;;;;;5049112;28;20108;-58
2024/01/26 03:53:40;;;;;;;31.42;29.13;;;;;;;;;;5049394;28;20455;-58
2024/01/26 03:56:07;;;;;;;35.90;33.08;;;;;;;;;;5049735;28;20032;-60
2024/01/26 03:58:33;;;;;;;31.52;29.23;;;;;;;;;;5048171;28;20506;-60
2024/01/26 04:00:59;;;;;;;31.45;29.05;;;;;;;;;;5049138;28;20040;-59
2024/01/26 04:03:25;;;;;;;33.30;30.48;;;;;;;;;;5048726;28;20051;-57
2024/01/26 04:05:51;;;;;;;32.75;30.40;;;;;;;;;;5049672;28;20064;-59
2024/01/26 04:08:18;;;;;;;31.38;29.08;;;;;;;;;;5049794;28;20060;-57
2024/01/26 04:10:44;;;;;;;31.20;28.90;;;;;;;;;;5047864;28;20029;-59
2024/01/26 04:13:10;;;;;;;31.83;29.45;;;;;;;;;;5048701;28;20058;-58
2024/01/26 04:15:36;;;;;;;30.77;28.48;;;;;;;;;;5049356;28;20072;-56
2024/01/26 04:18:02;;;;;;;31.52;29.23;;;;;;;;;;5048928;28;20094;-57
2024/01/26 04:20:28;;;;;;;33.20;30.80;;;;;;;;;;5049055;28;20623;-58
2024/01/26 04:22:54;;;;;;;30.95;28.65;;;;;;;;;;5048437;28;20669;-56
2024/01/26 04:25:20;;;;;;;35.03;32.40;;;;;;;;;;5049040;28;20072;-56
2024/01/26 04:27:46;;;;;;;32.05;29.75;;;;;;;;;;5048814;28;20151;-57
2024/01/26 04:30:13;;;;;;;34.78;32.13;;;;;;;;;;5048920;28;20016;-58
2024/01/26 04:32:39;;;;;;;35.30;32.80;;;;;;;;;;5048226;28;20029;-58
2024/01/26 04:35:05;;;;;;;31.52;29.23;;;;;;;;;;5049075;28;20134;-58
2024/01/26 04:37:31;;;;;;;30.83;28.52;;;;;;;;;;5048909;28;20067;-58
2024/01/26 04:39:57;;;;;;;31.98;29.67;;;;;;;;;;5048934;28;20375;-58
2024/01/26 04:42:23;;;;;;;34.60;31.83;;;;;;;;;;5048262;28;20059;-60
2024/01/26 04:44:49;;;;;;;30.88;28.58;;;;;;;;;;5048991;28;20021;-57
2024/01/26 04:47:16;;;;;;;34.78;31.73;;;;;;;;;;5048985;28;20059;-60
2024/01/26 04:49:42;;;;;;;34.63;32.08;;;;;;;;;;5048897;28;20021;-58
2024/01/26 04:52:08;;;;;;;33.13;30.52;;;;;;;;;;5047829;28;20022;-57
2024/01/26 04:54:37;;;;;;;33.50;30.65;;;;;;;;;;5048593;28;20078;-60
2024/01/26 04:57:03;;;;;;;29.30;27.10;;;;;;;;;;5048214;28;20078;-59
2024/01/26 04:59:29;;;;;;;31.02;28.60;;;;;;;;;;5048233;28;20029;-58
2024/01/26 05:01:55;;;;;;;29.25;27.05;;;;;;;;;;5046379;28;20033;-59
2024/01/26 05:04:21;;;;;;;29.85;27.65;;;;;;;;;;5047427;28;20413;-58
2024/01/26 05:06:47;;;;;;;29.98;27.48;;;;;;;;;;5048785;28;20021;-60
2024/01/26 05:09:14;;;;;;;28.75;26.45;;;;;;;;;;5048584;28;20049;-58
2024/01/26 05:11:40;;;;;;;27.90;25.48;;;;;;;;;;5049030;28;20029;-58
2024/01/26 05:14:06;;;;;;;27.80;25.42;;;;;;;;;;5047753;28;20036;-60
2024/01/26 05:16:32;;;;;;;25.10;23.10;;;;;;;;;;5048850;28;20025;-60
2024/01/26 05:18:58;;;;;;;25.35;23.13;;;;;;;;;;5048882;28;20025;-57
2024/01/26 05:21:24;;;;;;;25.80;23.60;;;;;;;;;;5048409;28;20029;-58
2024/01/26 05:23:50;;;;;;;23.38;21.27;;;;;;;;;;5049133;28;20593;-58
2024/01/26 05:26:18;;;;;;;22.08;20.10;;;;;;;;;;5049014;28;20021;-58
2024/01/26 05:28:43;;;;;;;21.83;19.83;;;;;;;;;;5047059;28;20407;-56
2024/01/26 05:31:09;;;;;;;20.98;18.92;;;;;;;;;;5048023;28;20028;-59
2024/01/26 05:33:35;;;;;;;20.40;18.40;;;;;;;;;;5047933;28;20421;-57
2024/01/26 05:36:01;;;;;;;18.15;16.35;;;;;;;;;;5048396;28;20024;-59
2024/01/26 05:38:28;;;;;;;19.65;17.48;;;;;;;;;;5048318;28;20143;-58
2024/01/26 05:40:53;;;;;;;17.42;15.73;;;;;;;;;;5048114;28;20018;-58
2024/01/26 05:43:19;;;;;;;17.35;15.60;;;;;;;;;;5048178;28;20040;-58
2024/01/26 05:45:46;;;;;;;18.42;16.48;;;;;;;;;;5048462;28;20029;-56
2024/01/26 05:48:12;;;;;;;17.15;15.45;;;;;;;;;;5048157;28;20075;-58
2024/01/26 05:50:38;;;;;;;16.60;14.90;;;;;;;;;;5048351;28;20059;-57
2024/01/26 05:53:04;;;;;;;16.15;14.45;;;;;;;;;;5047123;28;20318;-57
2024/01/26 05:55:31;;;;;;;17.75;15.50;;;;;;;;;;5048192;28;20472;-60
2024/01/26 05:57:57;;;;;;;16.15;14.43;;;;;;;;;;5048120;28;20044;-58
2024/01/26 06:00:23;;;;;;;15.80;13.68;;;;;;;;;;5047979;28;20017;-59
2024/01/26 06:02:49;;;;;;;15.40;13.60;;;;;;;;;;5047610;28;20468;-59
2024/01/26 06:05:15;;;;;;;20.08;14.80;;;;;;;;;;5046919;28;20119;-57
2024/01/26 06:07:41;;;;;;;14.90;11.90;;;;;;;;;;5047881;28;20061;-60
2024/01/26 06:10:08;;;;;;;14.70;11.60;;;;;;;;;;5050574;28;20053;-62
2024/01/26 06:12:34;;;;;;;14.70;11.48;;;;;;;;;;5050768;28;20057;-59
2024/01/26 06:15:00;;;;;;;14.63;11.70;;;;;;;;;;5051394;28;20479;-60
2024/01/26 06:17:26;;;;;;;15.13;11.90;;;;;;;;;;5051377;28;20078;-57
2024/01/26 06:19:52;;;;;;;14.65;11.57;;;;;;;;;;5051180;28;20032;-57
2024/01/26 06:22:18;;;;;;;14.48;11.10;;;;;;;;;;5049051;28;20475;-58
2024/01/26 06:24:44;;;;;;;14.35;10.88;;;;;;;;;;5051048;28;20031;-59
2024/01/26 06:27:10;;;;;;;14.65;11.00;;;;;;;;;;5051169;28;20029;-59
2024/01/26 06:29:36;;;;;;;14.57;11.50;;;;;;;;;;5050959;28;20029;-59
2024/01/26 06:32:02;;;;;;;15.30;12.00;;;;;;;;;;5050269;28;20033;-59
2024/01/26 06:34:28;;;;;;;14.40;11.15;;;;;;;;;;5051097;28;20628;-59
2024/01/26 06:36:54;;;;;;;16.42;11.55;;;;;;;;;;5051029;28;20060;-62
2024/01/26 06:39:21;;;;;;;14.18;10.35;;;;;;;;;;5049886;28;20124;-59
2024/01/26 06:41:47;;;;;;;14.20;10.40;;;;;;;;;;5050414;28;20552;-57
2024/01/26 06:44:16;;;;;;;14.20;10.30;;;;;;;;;;5051042;28;20021;-55
2024/01/26 06:46:42;;;;;;;14.20;10.43;;;;;;;;;;5050871;28;20110;-57
2024/01/26 06:49:10;;;;;;;15.00;10.85;;;;;;;;;;5050567;28;20068;-56
2024/01/26 06:51:37;;;;;;;22.65;20.55;;;;;;;;;;5050065;28;20037;-56
2024/01/26 06:54:03;;;;;;;14.20;10.30;;;;;;;;;;5050617;28;20087;-61
2024/01/26 06:56:29;;;;;;;15.65;10.90;;;;;;;;;;5050678;28;20029;-59
2024/01/26 06:58:54;;;;;;;14.80;11.65;;;;;;;;;;5050463;28;20029;-52
2024/01/26 07:01:20;;;;;;;14.50;11.05;;;;;;;;;;5050155;28;20029;-58
2024/01/26 07:03:46;;;;;;;14.88;11.68;;;;;;;;;;5050361;28;20025;-59
2024/01/26 07:06:12;;;;;;;14.43;10.95;;;;;;;;;;5050507;28;20110;-55
2024/01/26 07:08:38;;;;;;;14.30;10.80;;;;;;;;;;5050567;28;20467;-59
2024/01/26 07:11:04;;;;;;;15.10;11.30;;;;;;;;;;5050256;28;20074;-54
2024/01/26 07:13:31;;;;;;;14.32;10.80;;;;;;;;;;5048625;28;20082;-59
2024/01/26 07:15:56;;;;;;;14.40;10.80;;;;;;;;;;5050648;28;20021;-57
2024/01/26 07:18:23;;;;;;;14.60;10.80;;;;;;;;;;5050191;28;20036;-58
2024/01/26 07:20:48;;;;;;;14.50;11.20;;;;;;;;;;5047859;28;20422;-57
2024/01/26 07:23:14;;;;;;;15.00;12.02;;;;;;;;;;5049674;28;20028;-57
2024/01/26 07:25:40;;;;;;;14.60;11.60;;;;;;;;;;5050181;28;20376;-52
2024/01/26 07:28:07;;;;;;;14.60;11.32;;;;;;;;;;5049694;28;20025;-55
2024/01/26 07:30:33;;;;;;;14.65;11.55;;;;;;;;;;5048626;28;20079;-58
2024/01/26 07:33:00;;;;;;;14.60;11.25;;;;;;;;;;5047530;28;20039;-58
2024/01/26 07:35:26;;;;;;;15.65;11.85;;;;;;;;;;5049713;28;20029;-58
2024/01/26 07:37:52;;;;;;;14.90;12.38;;;;;;;;;;5048560;28;20071;-59
2024/01/26 07:40:18;;;;;;;15.50;13.63;;;;;;;;;;5049742;28;20017;-59
2024/01/26 07:42:44;;;;;;;31.98;29.58;;;;;;;;;;5049010;28;20033;-59
2024/01/26 07:45:10;;;;;;;41.45;38.45;;;;;;;;;;5049690;28;20087;-58
2024/01/26 07:47:36;;;;;;;44.17;40.97;;;;;;;;;;5049571;28;20057;-59
2024/01/26 07:50:05;;;;;;;44.33;41.03;;;;;;;;;;5048188;28;20025;-58
2024/01/26 07:52:32;;;;;;;44.42;41.03;;;;;;;;;;5048726;28;20103;-57
2024/01/26 07:54:58;;;;;;;45.17;41.80;;;;;;;;;;5049509;28;20032;-57
2024/01/26 07:57:25;;;;;;;45.67;42.15;;;;;;;;;;5049735;28;20052;-57
2024/01/26 07:59:51;;;;;;;45.30;42.00;;;;;;;;;;5049600;28;20544;-58
2024/01/26 08:02:17;;;;;;;44.67;41.38;;;;;;;;;;5049188;28;20040;-57
2024/01/26 08:04:43;;;;;;;44.10;40.80;;;;;;;;;;5047872;28;20021;-57
2024/01/26 08:07:09;;;;;;;47.92;44.42;;;;;;;;;;5049444;28;20013;-57
2024/01/26 08:09:35;;;;;;;48.35;44.85;;;;;;;;;;5049399;28;20097;-60
2024/01/26 08:12:01;;;;;;;46.88;43.47;;;;;;;;;;5047660;28;20052;-60
2024/01/26 08:14:27;;;;;;;47.00;43.70;;;;;;;;;;5049271;28;20455;-60
2024/01/26 08:16:53;;;;;;;46.78;43.47;;;;;;;;;;5049015;28;20021;-60
2024/01/26 08:19:19;;;;;;;48.70;45.40;;;;;;;;;;5047733;28;20412;-58
2024/01/26 08:21:45;;;;;;;45.47;42.28;;;;;;;;;;5048494;28;20044;-58
2024/01/26 08:24:11;;;;;;;46.20;42.90;;;;;;;;;;5049142;28;20094;-59
2024/01/26 08:26:38;;;;;;;46.85;43.45;;;;;;;;;;5049791;28;20028;-56
2024/01/26 08:29:04;;;;;;;44.00;40.90;;;;;;;;;;5047976;28;20033;-57
2024/01/26 08:31:30;;;;;;;44.55;41.35;;;;;;;;;;5046312;28;20098;-58
2024/01/26 08:33:56;;;;;;;42.83;39.65;;;;;;;;;;5048966;28;20025;-57
2024/01/26 08:36:22;;;;;;;40.08;37.03;;;;;;;;;;5049126;28;20017;-57
2024/01/26 08:38:49;;;;;;;39.28;36.28;;;;;;;;;;5048690;28;20036;-57
2024/01/26 08:41:16;;;;;;;39.55;36.65;;;;;;;;;;5048303;28;20036;-59
2024/01/26 08:43:43;;;;;;;34.33;31.83;;;;;;;;;;5048899;28;20021;-57
2024/01/26 08:46:10;;;;;;;31.55;29.15;;;;;;;;;;5048702;28;20043;-55
2024/01/26 08:48:36;;;;;;;31.08;28.77;;;;;;;;;;5048537;28;20035;-58
2024/01/26 08:51:02;;;;;;;30.63;28.33;;;;;;;;;;5048351;28;20064;-59
2024/01/26 08:53:28;;;;;;;28.73;26.52;;;;;;;;;;5048598;28;20792;-57
2024/01/26 08:55:54;;;;;;;28.13;25.92;;;;;;;;;;5047310;28;20021;-55
2024/01/26 08:58:20;;;;;;;26.15;24.05;;;;;;;;;;5048656;28;20029;-53
2024/01/26 09:00:47;;;;;;;26.63;24.52;;;;;;;;;;5048688;28;20036;-56
2024/01/26 09:03:14;;;;;;;26.20;24.10;;;;;;;;;;5047929;28;20061;-56
2024/01/26 09:05:40;;;;;;;27.20;25.10;;;;;;;;;;5048575;28;20040;-53
2024/01/26 09:08:06;;;;;;;27.35;25.25;;;;;;;;;;5048427;28;20553;-56
2024/01/26 09:10:32;;;;;;;27.38;25.27;;;;;;;;;;5048443;28;20029;-57
2024/01/26 09:12:58;;;;;;;28.40;26.20;;;;;;;;;;5047495;28;20078;-56
2024/01/26 09:15:24;;;;;;;29.77;27.58;;;;;;;;;;5048432;28;20051;-57
2024/01/26 09:17:50;;;;;;;29.23;27.02;;;;;;;;;;5048359;28;20078;-56
2024/01/26 09:20:16;;;;;;;30.73;28.42;;;;;;;;;;5048547;28;20028;-55
2024/01/26 09:22:42;;;;;;;30.70;28.40;;;;;;;;;;5047454;28;20029;-54
2024/01/26 09:25:08;;;;;;;29.25;27.05;;;;;;;;;;5048611;28;20021;-56
2024/01/26 09:27:34;;;;;;;29.63;27.35;;;;;;;;;;5048517;28;20083;-57
2024/01/26 09:30:01;;;;;;;30.63;28.33;;;;;;;;;;5048191;28;20533;-57
2024/01/26 09:32:27;;;;;;;31.00;28.70;;;;;;;;;;5047583;28;20029;-60
2024/01/26 09:34:53;;;;;;;31.10;28.80;;;;;;;;;;5048344;28;20082;-58
2024/01/26 09:37:20;;;;;;;30.85;28.55;;;;;;;;;;5047897;28;20483;-56
2024/01/26 09:39:46;;;;;;;31.05;28.75;;;;;;;;;;5048319;28;20477;-59
2024/01/26 09:42:12;;;;;;;31.55;29.25;;;;;;;;;;5047993;28;20033;-56
2024/01/26 09:44:38;;;;;;;31.90;29.50;;;;;;;;;;5051005;28;20390;-58
2024/01/26 09:47:10;;;;;;;31.30;29.00;;;;;;;;;;5052777;28;20058;-56
2024/01/26 09:49:37;;;;;;;31.30;29.00;;;;;;;;;;5051176;28;20399;-60
2024/01/26 09:52:04;;;;;;;31.15;28.85;;;;;;;;;;5050924;28;20025;-60
2024/01/26 09:54:30;;;;;;;31.35;29.05;;;;;;;;;;5050651;28;20029;-60
2024/01/26 09:56:57;;;;;;;31.77;29.48;;;;;;;;;;5051416;28;20033;-61
2024/01/26 09:59:23;;;;;;;30.65;28.35;;;;;;;;;;5051613;28;20064;-61
2024/01/26 10:01:50;;;;;;;29.75;27.55;;;;;;;;;;5050841;28;20059;-58
2024/01/26 10:04:16;;;;;;;28.98;26.77;;;;;;;;;;5051398;28;20031;-61
2024/01/26 10:06:42;;;;;;;28.70;26.50;;;;;;;;;;5051368;28;20067;-61
2024/01/26 10:09:10;;;;;;;28.65;26.45;;;;;;;;;;5050021;28;20360;-60
2024/01/26 10:11:36;;;;;;;27.63;25.42;;;;;;;;;;5050727;28;20455;-60
2024/01/26 10:14:02;;;;;;;27.15;25.05;;;;;;;;;;5051638;28;20025;-59
2024/01/26 10:16:28;;;;;;;27.25;25.15;;;;;;;;;;5051922;28;20032;-60
2024/01/26 10:18:54;;;;;;;28.27;26.08;;;;;;;;;;5052039;28;20074;-61
2024/01/26 10:21:22;;;;;;;28.67;26.48;;;;;;;;;;5049722;28;20102;-60
2024/01/26 10:23:48;;;;;;;30.90;28.60;;;;;;;;;;5051842;28;20079;-61
2024/01/26 10:26:14;;;;;;;32.03;29.63;;;;;;;;;;5051635;28;20122;-61
2024/01/26 10:28:40;;;;;;;30.55;28.25;;;;;;;;;;5051455;28;20036;-61
2024/01/26 10:31:06;;;;;;;31.92;29.52;;;;;;;;;;5050892;28;20033;-61
2024/01/26 10:33:32;;;;;;;31.25;28.85;;;;;;;;;;5050667;28;20036;-60
2024/01/26 10:36:00;;;;;;;31.08;28.77;;;;;;;;;;5051177;28;20471;-59
2024/01/26 10:38:26;;;;;;;31.83;29.43;;;;;;;;;;5051114;28;20139;-61
2024/01/26 10:40:56;;;;;;;30.67;28.38;;;;;;;;;;5050052;28;20029;-58
2024/01/26 10:43:22;;;;;;;28.80;26.60;;;;;;;;;;5049481;28;20506;-61
2024/01/26 10:45:48;;;;;;;28.20;26.00;;;;;;;;;;5050479;28;20151;-59
2024/01/26 10:48:16;;;;;;;28.52;26.33;;;;;;;;;;5050195;28;20028;-59
2024/01/26 10:50:41;;;;;;;27.70;25.50;;;;;;;;;;5049711;28;20025;-62
2024/01/26 10:53:07;;;;;;;26.48;24.38;;;;;;;;;;5049460;28;20029;-60
2024/01/26 10:55:35;;;;;;;25.48;23.38;;;;;;;;;;5050159;28;20115;-61
2024/01/26 10:58:02;;;;;;;25.10;23.00;;;;;;;;;;5050231;28;20498;-60
2024/01/26 11:00:28;;;;;;;25.52;23.42;;;;;;;;;;5050760;28;20073;-60
2024/01/26 11:02:55;;;;;;;37.72;34.92;;;;;;;;;;5049968;28;20036;-59
2024/01/26 11:05:21;;;;;;;40.10;37.20;;;;;;;;;;5048881;28;20029;-57
2024/01/26 11:07:48;;;;;;;33.03;30.52;;;;;;;;;;5050489;28;20036;-56
2024/01/26 11:10:32;;;;;;;31.40;29.00;;;;;;;;;;5050721;28;20021;-57
2024/01/26 11:13:02;;;;;;;27.48;25.27;;;;;;;;;;5049918;28;20110;-60
2024/01/26 11:15:29;;;;;;;27.13;24.92;;;;;;;;;;5049284;28;20032;-56
2024/01/26 11:17:58;;;;;;;27.30;25.10;;;;;;;;;;5050442;28;20029;-57
2024/01/26 11:20:31;;;;;;;26.73;24.63;;;;;;;;;;5050277;28;20036;-56
2024/01/26 11:23:13;;;;;;;24.98;22.98;;;;;;;;;;5048535;28;20081;-57
2024/01/26 11:25:47;;;;;;;24.50;22.50;;;;;;;;;;5050048;28;20174;-58
2024/01/26 11:28:17;;;;;;;23.70;21.27;;;;;;;;;;5049737;28;20032;-58
2024/01/26 11:30:51;;;;;;;24.13;22.00;;;;;;;;;;5048455;28;20531;-56
2024/01/26 11:33:21;;;;;;;21.42;19.52;;;;;;;;;;5048119;28;20482;-57
2024/01/26 11:35:48;;;;;;;19.88;18.08;;;;;;;;;;5049949;28;20108;-59
2024/01/26 11:38:14;;;;;;;19.00;17.20;;;;;;;;;;5049687;28;20055;-60
2024/01/26 11:40:40;;;;;;;16.77;14.95;;;;;;;;;;5049322;28;20028;-60
2024/01/26 11:43:07;;;;;;;15.40;13.07;;;;;;;;;;5048433;28;20025;-57
2024/01/26 11:45:33;;;;;;;26.48;12.73;;;;;;;;;;5049332;28;20110;-59
2024/01/26 11:47:59;;;;;;;14.27;10.50;;;;;;;;;;5049431;28;20125;-54
2024/01/26 11:50:25;;;;;;;18.02;11.60;;;;;;;;;;5047959;28;20218;-56
2024/01/26 11:52:51;;;;;;;14.38;10.95;;;;;;;;;;5048804;28;20510;-58
2024/01/26 11:55:17;;;;;;;15.63;11.85;;;;;;;;;;5049395;28;20032;-58
2024/01/26 11:57:43;;;;;;;16.83;10.65;;;;;;;;;;5049219;28;20086;-59
2024/01/26 12:00:10;;;;;;;15.60;9.95;;;;;;;;;;5049069;28;20379;-60
2024/01/26 12:02:36;;;;;;;13.98;9.70;;;;;;;;;;5046966;28;20431;-56
2024/01/26 12:05:02;;;;;;;13.93;9.63;;;;;;;;;;5049030;28;20515;-56
2024/01/26 12:07:28;;;;;;;13.88;9.40;;;;;;;;;;5047300;28;20032;-58
2024/01/26 12:09:55;;;;;;;14.73;10.45;;;;;;;;;;5048993;28;20106;-59
2024/01/26 12:12:21;;;;;;;14.05;10.00;;;;;;;;;;5048314;28;20086;-59
2024/01/26 12:14:47;;;;;;;16.92;8.70;;;;;;;;;;5048673;28;20032;-59
2024/01/26 12:17:13;;;;;;;13.13;7.80;;;;;;;;;;5049298;28;20033;-59
2024/01/26 12:19:39;;;;;;;13.20;7.50;;;;;;;;;;5048592;28;20079;-59
2024/01/26 12:22:10;;;;;;;13.63;8.27;;;;;;;;;;5047805;28;20471;-59
2024/01/26 12:24:36;;;;;;;14.63;9.13;;;;;;;;;;5048989;28;20032;-59
2024/01/26 12:27:02;;;;;;;15.60;9.38;;;;;;;;;;5048933;28;20037;-57
2024/01/26 12:29:31;;;;;;;15.55;8.77;;;;;;;;;;5048557;28;20033;-59
2024/01/26 12:32:02;;;;;;;14.25;8.55;;;;;;;;;;5047383;28;20028;-58
2024/01/26 12:34:28;;;;;;;13.90;8.30;;;;;;;;;;5048426;28;20025;-59
2024/01/26 12:37:01;;;;;;;15.90;8.45;;;;;;;;;;5048780;28;20045;-60
2024/01/26 12:39:28;;;;;;;14.82;8.55;;;;;;;;;;5048700;28;20079;-60
2024/01/26 12:41:55;;;;;;;13.05;7.63;;;;;;;;;;5047718;28;20130;-60
2024/01/26 12:44:28;;;;;;;13.32;7.60;;;;;;;;;;5049376;28;20096;-55
2024/01/26 12:46:54;;;;;;;13.50;7.88;;;;;;;;;;5048292;28;20052;-54
2024/01/26 12:49:20;;;;;;;12.35;7.22;;;;;;;;;;5048089;28;20028;-53
2024/01/26 12:51:45;;;;;;;14.63;8.13;;;;;;;;;;5047581;28;20021;-54
2024/01/26 12:54:11;;;;;;;14.52;7.57;;;;;;;;;;5048348;28;20386;-54
2024/01/26 12:56:37;;;;;;;14.45;7.90;;;;;;;;;;5048372;28;20032;-54
2024/01/26 12:59:03;;;;;;;18.05;8.18;;;;;;;;;;5048572;28;20028;-51
2024/01/26 13:01:30;;;;;;;13.25;7.82;;;;;;;;;;5048042;28;20065;-52
2024/01/26 13:03:56;;;;;;;16.88;8.98;;;;;;;;;;5048988;28;20032;-56
2024/01/26 13:06:22;;;;;;;13.20;7.80;;;;;;;;;;5047467;28;20425;-60
2024/01/26 13:08:48;;;;;;;12.93;7.68;;;;;;;;;;5048860;28;20028;-52
2024/01/26 13:11:14;;;;;;;18.58;8.30;;;;;;;;;;5048328;28;20115;-52
2024/01/26 13:13:43;;;;;;;18.73;7.60;;;;;;;;;;5048668;28;20152;-51
2024/01/26 13:16:09;;;;;;;15.77;7.50;;;;;;;;;;5049256;28;20487;-56
2024/01/26 13:18:37;;;;;;;15.43;8.07;;;;;;;;;;5050159;28;20040;-56
2024/01/26 13:21:03;;;;;;;;;;;;;;;;;;5054393;28;20082;-57
2024/01/26 13:23:29;;;;;;;15.75;7.80;;;;;;;;;;5054104;28;19931;-58
2024/01/26 13:25:56;;;;;;;17.10;8.07;;;;;;;;;;5055754;28;20104;-54
2024/01/26 13:28:24;;;;;;;17.08;8.65;;;;;;;;;;5054712;28;20363;-55
2024/01/26 13:30:52;;;;;;;21.52;8.65;;;;;;;;;;5053829;28;20017;-54
2024/01/26 13:33:19;;;;;;;20.35;8.73;;;;;;;;;;5053883;28;20025;-52
2024/01/26 13:35:48;;;;;;;13.23;8.00;;;;;;;;;;5051833;28;20028;-54
2024/01/26 13:38:14;;;;;;;16.55;8.13;;;;;;;;;;5052403;28;20021;-53
2024/01/26 13:40:40;;;;;;;14.70;7.75;;;;;;;;;;5052247;28;20029;-52
2024/01/26 13:43:07;;;;;;;14.88;7.97;;;;;;;;;;5051186;28;20064;-49
2024/01/26 13:45:33;;;;;;;17.77;7.80;;;;;;;;;;5050693;28;20139;-54
2024/01/26 13:48:04;;;;;;;13.45;7.57;;;;;;;;;;5050882;28;20028;-53
2024/01/26 13:50:31;;;;;;;12.00;7.00;;;;;;;;;;5048851;28;20163;-56
2024/01/26 13:52:57;;;;;;;13.32;7.35;;;;;;;;;;5048957;28;20435;-50
2024/01/26 13:55:23;;;;;;;16.75;8.20;;;;;;;;;;5050139;28;20100;-56
2024/01/26 13:57:49;;;;;;;12.40;7.20;;;;;;;;;;5050059;28;20423;-52
2024/01/26 14:00:16;;;;;;;14.48;8.10;;;;;;;;;;5050309;28;20037;-53
2024/01/26 14:02:42;;;;;;;13.77;7.93;;;;;;;;;;5049781;28;20029;-51
2024/01/26 14:05:08;;;;;;;20.17;8.60;;;;;;;;;;5051411;28;20363;-54
2024/01/26 14:07:34;;;;;;;14.10;9.27;;;;;;;;;;5051149;28;20082;-54
2024/01/26 14:10:00;;;;;;;28.67;25.95;;;;;;;;;;5050088;28;20033;-56
2024/01/26 14:12:27;;;;;;;33.80;31.10;;;;;;;;;;5050943;28;20033;-55
2024/01/26 14:14:54;;;;;;;32.30;29.80;;;;;;;;;;5051609;28;20021;-56